createdAt,value
2023-04-19T00:00:16.275Z,12.45
2023-04-19T00:02:43.525Z,7.75
2023-04-19T00:05:12.158Z,10.98
2023-04-19T00:07:39.392Z,10.75
2023-04-19T00:10:07.386Z,9.57
2023-04-19T00:12:34.466Z,8.85
2023-04-19T00:15:01.516Z,9.35
2023-04-19T00:17:29.270Z,10.43
2023-04-19T00:19:57.027Z,7.97
2023-04-19T00:22:24.179Z,8.30
2023-04-19T00:24:51.297Z,8.55
2023-04-19T00:27:18.577Z,7.88
2023-04-19T00:29:45.809Z,9.25
2023-04-19T00:32:12.928Z,10.77
2023-04-19T00:34:39.961Z,9.50
2023-04-19T00:37:07.050Z,10.60
2023-04-19T00:39:34.113Z,9.93
2023-04-19T00:42:01.574Z,10.50
2023-04-19T00:44:28.993Z,9.50
2023-04-19T00:46:57.212Z,11.25
2023-04-19T00:49:24.970Z,8.20
2023-04-19T00:51:52.188Z,8.98
2023-04-19T00:54:20.256Z,8.52
2023-04-19T00:56:47.574Z,9.27
2023-04-19T00:59:15.841Z,7.95
2023-04-19T01:01:43.105Z,11.38
2023-04-19T01:04:10.431Z,8.73
2023-04-19T01:06:38.614Z,9.95
2023-04-19T01:09:05.645Z,9.35
2023-04-19T01:11:32.800Z,8.05
2023-04-19T01:14:02.636Z,10.02
2023-04-19T01:16:29.832Z,9.70
2023-04-19T01:18:57.080Z,9.75
2023-04-19T01:21:24.153Z,8.85
2023-04-19T01:23:51.174Z,11.30
2023-04-19T01:26:19.040Z,8.43
2023-04-19T01:28:46.111Z,11.35
2023-04-19T01:31:13.272Z,8.13
2023-04-19T01:33:40.255Z,10.43
2023-04-19T01:36:07.872Z,10.20
2023-04-19T01:38:35.368Z,9.38
2023-04-19T01:43:43.308Z,10.30
2023-04-19T01:46:10.447Z,9.73
2023-04-19T01:48:37.462Z,9.30
2023-04-19T01:51:04.685Z,9.68
2023-04-19T01:53:31.690Z,10.30
2023-04-19T01:55:58.745Z,9.77
2023-04-19T01:58:25.788Z,9.38
2023-04-19T02:00:52.921Z,11.52
2023-04-19T02:03:20.228Z,9.57
2023-04-19T02:05:47.360Z,11.30
2023-04-19T02:08:14.350Z,10.60
2023-04-19T02:10:41.422Z,10.98
2023-04-19T02:13:08.419Z,10.52
2023-04-19T02:15:37.665Z,9.90
2023-04-19T02:18:07.055Z,10.73
2023-04-19T02:20:34.396Z,10.50
2023-04-19T02:23:01.458Z,9.55
2023-04-19T02:25:28.612Z,12.80
2023-04-19T02:27:55.750Z,11.77
2023-04-19T02:30:23.267Z,9.10
2023-04-19T02:32:50.454Z,8.77
2023-04-19T02:35:17.674Z,12.65
2023-04-19T02:37:44.987Z,10.65
2023-04-19T02:40:12.167Z,10.38
2023-04-19T02:42:39.246Z,11.48
2023-04-19T02:45:07.185Z,10.05
2023-04-19T02:47:34.330Z,11.63
2023-04-19T02:50:02.902Z,10.20
2023-04-19T02:52:29.996Z,12.10
2023-04-19T02:54:57.149Z,9.93
2023-04-19T02:57:24.375Z,9.52
2023-04-19T02:59:51.458Z,8.93
2023-04-19T03:02:18.631Z,9.88
2023-04-19T03:04:45.717Z,11.23
2023-04-19T03:07:13.100Z,13.63
2023-04-19T03:09:40.153Z,9.75
2023-04-19T03:12:08.199Z,12.85
2023-04-19T03:14:35.476Z,13.73
2023-04-19T03:17:03.075Z,10.88
2023-04-19T03:19:30.607Z,12.85
2023-04-19T03:21:57.703Z,12.43
2023-04-19T03:24:32.167Z,10.75
2023-04-19T03:26:59.235Z,10.75
2023-04-19T03:29:26.348Z,12.13
2023-04-19T03:31:53.440Z,11.02
2023-04-19T03:34:20.538Z,11.02
2023-04-19T03:36:47.669Z,13.15
2023-04-19T03:39:14.750Z,14.25
2023-04-19T03:41:41.997Z,11.45
2023-04-19T03:44:09.105Z,10.85
2023-04-19T03:46:36.348Z,10.63
2023-04-19T03:49:03.492Z,9.90
2023-04-19T03:51:31.681Z,12.40
2023-04-19T03:53:58.717Z,10.55
2023-04-19T03:56:25.804Z,11.55
2023-04-19T03:58:52.875Z,12.48
2023-04-19T04:01:24.771Z,9.60
2023-04-19T04:03:51.919Z,12.18
2023-04-19T04:06:19.146Z,13.45
2023-04-19T04:08:48.233Z,10.85
2023-04-19T04:11:15.359Z,11.38
2023-04-19T04:13:43.359Z,9.85
2023-04-19T04:16:10.472Z,11.48
2023-04-19T04:18:37.552Z,12.65
2023-04-19T04:21:04.758Z,13.45
2023-04-19T04:23:33.977Z,15.35
2023-04-19T04:26:01.696Z,16.42
2023-04-19T04:28:29.023Z,12.65
2023-04-19T04:31:00.901Z,13.30
2023-04-19T04:33:28.869Z,12.60
2023-04-19T04:35:57.901Z,15.13
2023-04-19T04:38:25.820Z,14.70
2023-04-19T04:40:54.238Z,14.10
2023-04-19T04:43:23.002Z,11.65
2023-04-19T04:45:50.373Z,12.95
2023-04-19T04:48:17.697Z,14.13
2023-04-19T04:50:44.936Z,14.15
2023-04-19T04:53:14.665Z,14.23
2023-04-19T04:55:41.782Z,15.02
2023-04-19T04:58:08.826Z,14.05
2023-04-19T05:00:36.093Z,17.60
2023-04-19T05:03:03.467Z,15.00
2023-04-19T05:05:30.797Z,17.52
2023-04-19T05:07:57.868Z,18.85
2023-04-19T05:10:24.933Z,20.85
2023-04-19T05:12:52.001Z,20.90
2023-04-19T05:15:19.277Z,17.85
2023-04-19T05:17:46.353Z,17.10
2023-04-19T05:20:14.085Z,16.10
2023-04-19T05:22:41.301Z,17.17
2023-04-19T05:25:11.841Z,21.05
2023-04-19T05:27:38.884Z,16.50
2023-04-19T05:30:07.612Z,18.63
2023-04-19T05:32:34.839Z,17.23
2023-04-19T05:35:01.944Z,16.63
2023-04-19T05:37:30.603Z,19.52
2023-04-19T05:39:58.455Z,15.52
2023-04-19T05:42:25.848Z,15.70
2023-04-19T05:44:52.886Z,17.20
2023-04-19T05:47:20.039Z,17.60
2023-04-19T05:49:47.110Z,17.85
2023-04-19T05:52:14.144Z,20.30
2023-04-19T05:54:41.411Z,17.98
2023-04-19T05:57:08.481Z,19.40
2023-04-19T05:59:35.593Z,19.10
2023-04-19T06:02:03.277Z,15.85
2023-04-19T06:04:30.656Z,17.33
2023-04-19T06:06:57.873Z,21.67
2023-04-19T06:09:24.907Z,17.75
2023-04-19T06:11:54.828Z,16.98
2023-04-19T06:14:23.077Z,14.75
2023-04-19T06:16:50.198Z,15.23
2023-04-19T06:19:17.302Z,17.02
2023-04-19T06:21:44.406Z,15.40
2023-04-19T06:24:11.828Z,13.30
2023-04-19T06:26:38.911Z,15.13
2023-04-19T06:29:06.502Z,12.50
2023-04-19T06:31:33.880Z,14.63
2023-04-19T06:34:01.237Z,14.38
2023-04-19T06:36:28.288Z,12.57
2023-04-19T06:38:55.656Z,13.73
2023-04-19T06:41:23.183Z,16.73
2023-04-19T06:43:50.666Z,10.30
2023-04-19T06:46:17.738Z,11.18
2023-04-19T06:48:44.889Z,11.90
2023-04-19T06:51:12.205Z,10.63
2023-04-19T06:53:39.255Z,11.35
2023-04-19T06:56:06.760Z,12.27
2023-04-19T06:58:39.518Z,10.40
2023-04-19T07:01:06.777Z,11.10
2023-04-19T07:03:34.275Z,11.02
2023-04-19T07:06:01.401Z,9.70
2023-04-19T07:08:42.513Z,9.43
2023-04-19T07:11:16.144Z,9.93
2023-04-19T07:13:43.147Z,7.50
2023-04-19T07:16:10.361Z,8.98
2023-04-19T07:18:37.545Z,10.20
2023-04-19T07:21:04.657Z,8.95
2023-04-19T07:23:31.965Z,8.40
2023-04-19T07:25:59.026Z,8.05
2023-04-19T07:28:26.045Z,7.22
2023-04-19T07:30:53.194Z,8.40
2023-04-19T07:33:20.408Z,7.97
2023-04-19T07:35:47.853Z,9.73
2023-04-19T07:38:14.878Z,7.22
2023-04-19T07:40:41.924Z,6.68
2023-04-19T07:43:08.934Z,7.50
2023-04-19T07:45:36.254Z,6.65
2023-04-19T07:48:03.428Z,6.28
2023-04-19T07:50:30.631Z,7.70
2023-04-19T07:52:57.797Z,9.32
2023-04-19T07:55:24.857Z,8.15
2023-04-19T07:57:52.001Z,7.75
2023-04-19T08:00:21.722Z,11.05
2023-04-19T08:02:49.863Z,7.22
2023-04-19T08:05:18.109Z,7.68
2023-04-19T08:07:45.974Z,6.60
2023-04-19T08:10:13.723Z,7.50
2023-04-19T08:12:47.801Z,6.28
2023-04-19T08:16:03.736Z,7.25
2023-04-19T08:18:11.844Z,7.68
2023-04-19T08:20:38.951Z,7.47
2023-04-19T08:23:20.659Z,7.80
2023-04-19T08:25:49.810Z,6.50
2023-04-19T08:28:18.438Z,11.77
2023-04-19T08:30:45.583Z,7.10
2023-04-19T08:33:12.756Z,7.80
2023-04-19T08:35:42.970Z,6.38
2023-04-19T08:38:10.165Z,6.25
2023-04-19T08:40:46.373Z,5.95
2023-04-19T08:43:13.735Z,7.80
2023-04-19T08:45:41.271Z,9.18
2023-04-19T08:48:12.001Z,7.95
2023-04-19T08:50:52.451Z,6.75
2023-04-19T08:53:33.414Z,6.78
2023-04-19T09:01:09.787Z,6.43
2023-04-19T09:04:01.349Z,5.93
2023-04-19T09:06:40.153Z,8.55
2023-04-19T09:11:52.298Z,7.47
2023-04-19T09:14:21.692Z,8.80
2023-04-19T09:16:49.593Z,7.18
2023-04-19T09:19:23.934Z,9.20
2023-04-19T09:21:54.852Z,6.63
2023-04-19T09:27:13.369Z,11.82
2023-04-19T09:29:40.554Z,9.00
2023-04-19T09:32:07.773Z,6.97
2023-04-19T09:34:34.848Z,4.90
2023-04-19T09:37:27.972Z,7.78
2023-04-19T09:40:21.408Z,5.72
2023-04-19T09:45:29.128Z,7.88
2023-04-19T09:48:06.063Z,7.28
2023-04-19T09:50:35.963Z,6.00
2023-04-19T09:53:14.357Z,5.13
2023-04-19T09:55:57.094Z,5.53
2023-04-19T09:58:34.317Z,4.72
2023-04-19T10:03:36.368Z,6.35
2023-04-19T10:06:10.587Z,10.15
2023-04-19T10:08:41.661Z,5.38
2023-04-19T10:11:10.234Z,4.88
2023-04-19T10:13:37.905Z,6.43
2023-04-19T10:16:18.324Z,4.05
2023-04-19T10:18:48.790Z,6.50
2023-04-19T10:21:16.342Z,3.97
2023-04-19T10:23:43.530Z,5.32
2023-04-19T10:26:10.608Z,11.15
2023-04-19T10:28:38.253Z,4.88
2023-04-19T10:31:05.707Z,5.72
2023-04-19T10:33:38.490Z,3.85
2023-04-19T10:36:09.997Z,3.58
2023-04-19T10:38:48.377Z,4.00
2023-04-19T10:41:19.609Z,5.70
2023-04-19T10:43:48.618Z,6.13
2023-04-19T10:46:21.763Z,4.20
2023-04-19T10:48:58.837Z,3.97
2023-04-19T10:51:37.171Z,3.95
2023-04-19T10:54:08.949Z,4.38
2023-04-19T10:56:35.961Z,2.80
2023-04-19T10:59:03.459Z,4.32
2023-04-19T11:01:43.478Z,2.85
2023-04-19T11:04:22.562Z,4.43
2023-04-19T11:06:55.564Z,2.65
2023-04-19T11:09:23.489Z,3.90
2023-04-19T11:11:51.433Z,7.28
2023-04-19T11:14:21.434Z,8.18
2023-04-19T11:16:48.569Z,5.85
2023-04-19T11:19:19.910Z,6.35
2023-04-19T11:21:48.228Z,6.95
2023-04-19T11:24:21.956Z,7.43
2023-04-19T11:26:49.063Z,5.32
2023-04-19T11:29:16.206Z,5.80
2023-04-19T11:31:47.208Z,4.50
2023-04-19T11:34:14.666Z,4.15
2023-04-19T11:37:08.502Z,5.90
2023-04-19T11:39:46.469Z,6.38
2023-04-19T11:42:22.711Z,3.58
2023-04-19T11:44:51.894Z,4.03
2023-04-19T11:47:22.359Z,3.80
2023-04-19T11:49:49.568Z,3.72
2023-04-19T11:52:25.147Z,2.50
2023-04-19T11:54:54.831Z,2.65
2023-04-19T11:57:30.066Z,3.67
2023-04-19T12:00:12.374Z,2.40
2023-04-19T12:02:41.458Z,4.38
2023-04-19T12:05:16.086Z,4.20
2023-04-19T12:08:03.692Z,5.10
2023-04-19T12:10:33.565Z,3.40
2023-04-19T12:13:00.778Z,3.88
2023-04-19T12:15:49.247Z,6.78
2023-04-19T12:18:16.380Z,3.47
2023-04-19T12:20:48.911Z,3.85
2023-04-19T12:23:17.472Z,2.58
2023-04-19T12:25:47.602Z,2.63
2023-04-19T12:28:16.023Z,3.10
2023-04-19T12:30:44.526Z,2.72
2023-04-19T12:33:11.784Z,2.42
2023-04-19T12:35:39.375Z,2.67
2023-04-19T12:38:06.436Z,2.58
2023-04-19T12:40:33.836Z,2.50
2023-04-19T12:43:00.939Z,4.13
2023-04-19T12:45:28.087Z,4.88
2023-04-19T12:47:55.177Z,2.90
2023-04-19T12:50:22.384Z,2.72
2023-04-19T12:52:49.538Z,3.40
2023-04-19T12:55:16.661Z,3.00
2023-04-19T12:57:43.768Z,5.63
2023-04-19T13:00:11.257Z,2.20
2023-04-19T13:02:39.011Z,2.75
2023-04-19T13:05:07.471Z,5.60
2023-04-19T13:07:34.599Z,3.13
2023-04-19T13:10:01.844Z,6.38
2023-04-19T13:12:29.527Z,7.53
2023-04-19T13:14:57.173Z,2.95
2023-04-19T13:17:24.316Z,2.97
2023-04-19T13:19:51.372Z,3.78
2023-04-19T13:22:18.670Z,6.57
2023-04-19T13:24:45.819Z,4.28
2023-04-19T13:27:13.054Z,3.65
2023-04-19T13:29:40.138Z,3.13
2023-04-19T13:32:07.982Z,3.67
2023-04-19T13:34:35.976Z,3.60
2023-04-19T13:37:03.082Z,4.85
2023-04-19T13:39:30.083Z,4.78
2023-04-19T13:41:57.158Z,4.95
2023-04-19T13:44:25.373Z,4.50
2023-04-19T13:46:52.599Z,5.40
2023-04-19T13:49:19.664Z,5.15
2023-04-19T13:51:50.624Z,3.53
2023-04-19T13:54:19.835Z,3.28
2023-04-19T13:56:49.742Z,4.38
2023-04-19T13:59:19.592Z,10.10
2023-04-19T14:01:46.696Z,3.90
2023-04-19T14:04:13.980Z,3.63
2023-04-19T14:06:41.255Z,4.43
2023-04-19T14:09:08.323Z,6.00
2023-04-19T14:11:35.398Z,4.45
2023-04-19T14:14:02.427Z,6.00
2023-04-19T14:16:29.562Z,4.55
2023-04-19T14:18:56.655Z,6.38
2023-04-19T14:21:23.739Z,4.40
2023-04-19T14:23:50.871Z,5.25
2023-04-19T14:26:17.853Z,3.60
2023-04-19T14:28:44.875Z,3.15
2023-04-19T14:31:11.953Z,3.58
2023-04-19T14:33:39.080Z,6.25
2023-04-19T14:36:06.325Z,3.72
2023-04-19T14:38:34.073Z,10.40
2023-04-19T14:41:01.407Z,3.60
2023-04-19T14:43:28.457Z,4.93
2023-04-19T14:45:55.975Z,11.13
2023-04-19T14:48:22.995Z,6.05
2023-04-19T14:50:50.091Z,7.38
2023-04-19T14:53:17.184Z,4.80
2023-04-19T14:55:44.232Z,5.15
2023-04-19T14:58:11.337Z,5.53
2023-04-19T15:00:38.398Z,4.30
2023-04-19T15:03:05.569Z,3.25
2023-04-19T15:05:35.649Z,7.80
2023-04-19T15:08:02.957Z,2.95
2023-04-19T15:10:29.988Z,7.18
2023-04-19T15:12:58.079Z,7.28
2023-04-19T15:15:25.181Z,4.13
2023-04-19T15:17:52.367Z,5.07
2023-04-19T15:20:19.545Z,3.88
2023-04-19T15:22:46.593Z,3.97
2023-04-19T15:25:13.822Z,5.38
2023-04-19T15:27:40.916Z,4.72
2023-04-19T15:30:08.433Z,5.68
2023-04-19T15:32:36.997Z,10.45
2023-04-19T15:35:05.100Z,6.10
2023-04-19T15:37:32.149Z,3.78
2023-04-19T15:39:59.281Z,3.78
2023-04-19T15:42:26.354Z,5.18
2023-04-19T15:44:53.496Z,3.65
2023-04-19T15:47:20.552Z,4.82
2023-04-19T15:49:48.264Z,4.50
2023-04-19T15:52:15.300Z,3.25
2023-04-19T15:54:42.373Z,4.35
2023-04-19T15:57:09.405Z,3.65
2023-04-19T15:59:36.449Z,3.13
2023-04-19T16:02:03.597Z,4.50
2023-04-19T16:04:31.433Z,3.20
2023-04-19T16:06:59.226Z,3.70
2023-04-19T16:09:26.566Z,5.03
2023-04-19T16:11:53.606Z,3.05
2023-04-19T16:14:20.745Z,3.53
2023-04-19T16:16:48.637Z,6.35
2023-04-19T16:19:15.978Z,4.38
2023-04-19T16:21:43.240Z,5.45
2023-04-19T16:24:10.926Z,4.53
2023-04-19T16:26:39.307Z,5.88
2023-04-19T16:29:06.338Z,3.47
2023-04-19T16:31:33.529Z,3.42
2023-04-19T16:34:00.783Z,5.32
2023-04-19T16:36:28.184Z,7.38
2023-04-19T16:38:55.245Z,6.15
2023-04-19T16:41:25.307Z,5.22
2023-04-19T16:43:53.923Z,9.05
2023-04-19T16:46:22.696Z,3.80
2023-04-19T16:48:49.809Z,5.13
2023-04-19T16:51:18.080Z,3.17
2023-04-19T16:53:45.905Z,2.92
2023-04-19T16:56:13.301Z,4.85
2023-04-19T16:58:42.115Z,4.40
2023-04-19T17:01:09.391Z,6.78
2023-04-19T17:03:36.633Z,2.70
2023-04-19T17:06:04.022Z,4.95
2023-04-19T17:08:31.556Z,4.32
2023-04-19T17:10:58.726Z,6.50
2023-04-19T17:13:26.626Z,4.20
2023-04-19T17:15:53.714Z,17.77
2023-04-19T17:18:21.311Z,4.57
2023-04-19T17:20:48.367Z,5.47
2023-04-19T17:23:15.649Z,2.90
2023-04-19T17:25:42.666Z,2.65
2023-04-19T17:28:09.902Z,2.83
2023-04-19T17:30:37.013Z,7.30
2023-04-19T17:33:04.140Z,3.72
2023-04-19T17:35:31.226Z,4.45
2023-04-19T17:37:58.524Z,3.72
2023-04-19T17:40:28.010Z,3.85
2023-04-19T17:42:56.469Z,12.40
2023-04-19T17:45:25.224Z,3.10
2023-04-19T17:47:55.324Z,3.95
2023-04-19T17:50:23.394Z,5.72
2023-04-19T17:52:52.257Z,6.70
2023-04-19T17:55:19.387Z,4.78
2023-04-19T17:57:46.806Z,2.40
2023-04-19T18:00:15.354Z,4.70
2023-04-19T18:02:42.875Z,6.70
2023-04-19T18:05:13.593Z,4.20
2023-04-19T18:07:41.602Z,4.07
2023-04-19T18:10:09.563Z,2.67
2023-04-19T18:12:36.710Z,4.30
2023-04-19T18:15:06.055Z,3.00
2023-04-19T18:17:33.566Z,3.00
2023-04-19T18:20:02.191Z,3.47
2023-04-19T18:22:30.413Z,4.40
2023-04-19T18:24:57.426Z,4.18
2023-04-19T18:27:24.515Z,3.45
2023-04-19T18:29:52.658Z,3.92
2023-04-19T18:32:21.873Z,4.90
2023-04-19T18:34:49.128Z,2.85
2023-04-19T18:37:17.171Z,2.83
2023-04-19T18:39:44.755Z,3.78
2023-04-19T18:42:12.016Z,7.25
2023-04-19T18:44:52.948Z,2.95
2023-04-19T18:47:21.118Z,3.63
2023-04-19T18:50:02.685Z,5.28
2023-04-19T18:52:36.340Z,2.30
2023-04-19T18:55:05.398Z,5.07
2023-04-19T18:57:36.094Z,4.28
2023-04-19T19:00:11.265Z,2.53
2023-04-19T19:02:43.838Z,5.05
2023-04-19T19:05:13.983Z,2.60
2023-04-19T19:07:45.497Z,4.32
2023-04-19T19:10:19.479Z,6.95
2023-04-19T19:13:18.510Z,5.28
2023-04-19T19:15:57.564Z,3.88
2023-04-19T19:18:32.973Z,4.55
2023-04-19T19:21:11.091Z,4.68
2023-04-19T19:23:42.475Z,3.92
2023-04-19T19:26:17.320Z,7.63
2023-04-19T19:28:55.755Z,5.53
2023-04-19T19:31:23.258Z,3.40
2023-04-19T19:34:20.019Z,6.45
2023-04-19T19:37:09.417Z,3.63
2023-04-19T19:39:41.046Z,4.18
2023-04-19T19:42:16.665Z,2.88
2023-04-19T19:44:56.268Z,3.25
2023-04-19T19:47:27.974Z,4.60
2023-04-19T19:50:43.559Z,3.92
2023-04-19T19:52:45.086Z,4.22
2023-04-19T19:55:14.042Z,5.63
2023-04-19T20:00:36.498Z,4.80
2023-04-19T20:03:00.832Z,3.72
2023-04-19T20:05:28.714Z,5.32
2023-04-19T20:08:09.955Z,5.55
2023-04-19T20:10:44.863Z,3.55
2023-04-19T20:13:13.494Z,5.40
2023-04-19T20:15:50.181Z,4.55
2023-04-19T20:18:18.147Z,6.55
2023-04-19T20:20:45.362Z,6.07
2023-04-19T20:23:12.637Z,6.03
2023-04-19T20:25:39.960Z,4.95
2023-04-19T20:28:07.144Z,5.40
2023-04-19T20:30:34.404Z,5.50
2023-04-19T20:33:02.049Z,5.63
2023-04-19T20:35:29.372Z,3.88
2023-04-19T20:38:02.694Z,5.05
2023-04-19T20:40:31.976Z,5.82
2023-04-19T20:42:59.080Z,5.70
2023-04-19T20:45:26.430Z,5.57
2023-04-19T20:47:54.399Z,6.90
2023-04-19T20:50:21.775Z,3.28
2023-04-19T20:52:48.907Z,10.70
2023-04-19T20:55:16.600Z,5.63
2023-04-19T20:57:43.702Z,4.38
2023-04-19T21:00:11.533Z,3.53
2023-04-19T21:02:38.794Z,4.43
2023-04-19T21:05:06.599Z,9.02
2023-04-19T21:07:33.773Z,5.70
2023-04-19T21:10:00.880Z,5.18
2023-04-19T21:12:27.936Z,5.68
2023-04-19T21:14:54.976Z,5.93
2023-04-19T21:17:22.271Z,5.38
2023-04-19T21:19:49.333Z,5.03
2023-04-19T21:22:16.504Z,7.78
2023-04-19T21:24:44.134Z,6.97
2023-04-19T21:27:11.324Z,5.03
2023-04-19T21:29:38.613Z,4.07
2023-04-19T21:32:05.923Z,4.40
2023-04-19T21:34:32.972Z,5.03
2023-04-19T21:37:02.923Z,5.15
2023-04-19T21:39:29.956Z,6.65
2023-04-19T21:41:57.619Z,7.03
2023-04-19T21:44:24.694Z,5.97
2023-04-19T21:46:51.773Z,6.65
2023-04-19T21:49:18.910Z,8.07
2023-04-19T21:51:45.993Z,4.60
2023-04-19T21:54:20.276Z,5.13
2023-04-19T21:56:53.994Z,5.45
2023-04-19T21:59:21.076Z,3.83
2023-04-19T22:01:48.147Z,4.10
2023-04-19T22:04:16.044Z,4.93
2023-04-19T22:06:46.669Z,4.68
2023-04-19T22:09:14.220Z,7.93
2023-04-19T22:11:41.764Z,8.23
2023-04-19T22:14:09.242Z,6.05
2023-04-19T22:16:36.397Z,5.28
2023-04-19T22:19:03.628Z,5.18
2023-04-19T22:21:31.134Z,4.32
2023-04-19T22:23:58.200Z,10.90
2023-04-19T22:26:26.314Z,4.53
2023-04-19T22:28:54.354Z,6.22
2023-04-19T22:31:21.595Z,10.52
2023-04-19T22:33:48.700Z,7.63
2023-04-19T22:36:15.808Z,3.85
2023-04-19T22:38:42.843Z,8.98
2023-04-19T22:41:09.942Z,5.03
2023-04-19T22:43:38.058Z,7.35
2023-04-19T22:46:05.234Z,7.90
2023-04-19T22:48:33.122Z,3.75
2023-04-19T22:51:00.953Z,5.50
2023-04-19T22:53:28.002Z,10.23
2023-04-19T22:55:55.009Z,6.00
2023-04-19T22:58:22.370Z,6.78
2023-04-19T23:00:50.361Z,4.00
2023-04-19T23:03:17.472Z,4.90
2023-04-19T23:05:44.683Z,6.47
2023-04-19T23:08:13.081Z,5.20
2023-04-19T23:10:42.568Z,6.22
2023-04-19T23:13:15.869Z,6.13
2023-04-19T23:15:44.419Z,4.13
2023-04-19T23:18:11.922Z,5.38
2023-04-19T23:20:39.009Z,7.70
2023-04-19T23:23:08.078Z,8.85
2023-04-19T23:25:35.831Z,8.95
2023-04-19T23:28:02.927Z,4.80
2023-04-19T23:30:32.100Z,6.13
2023-04-19T23:32:59.221Z,5.25
2023-04-19T23:35:26.424Z,7.53
2023-04-19T23:37:53.535Z,6.47
2023-04-19T23:40:20.817Z,8.20
2023-04-19T23:42:47.907Z,7.53
2023-04-19T23:45:14.903Z,7.68
2023-04-19T23:47:41.960Z,5.60
2023-04-19T23:50:09.442Z,5.60
2023-04-19T23:52:36.667Z,5.90
2023-04-19T23:55:04.130Z,7.15
2023-04-19T23:57:33.674Z,8.70
